sensor_id;sensor_type;location;lat;lon;timestamp;P1;durP1;ratioP1;P2;durP2;ratioP2
72649;SDS011;61467;50.674;4.618;2023-12-07T00:01:40;28.05;;;10.85;;
72649;SDS011;61467;50.674;4.618;2023-12-07T00:04:07;27.60;;;10.77;;
72649;SDS011;61467;50.674;4.618;2023-12-07T00:06:34;31.93;;;12.73;;
72649;SDS011;61467;50.674;4.618;2023-12-07T00:09:01;32.92;;;11.50;;
72649;SDS011;61467;50.674;4.618;2023-12-07T00:11:29;34.97;;;10.75;;
72649;SDS011;61467;50.674;4.618;2023-12-07T00:13:56;30.08;;;10.98;;
72649;SDS011;61467;50.674;4.618;2023-12-07T00:16:22;31.98;;;11.25;;
72649;SDS011;61467;50.674;4.618;2023-12-07T00:18:49;35.00;;;12.40;;
72649;SDS011;61467;50.674;4.618;2023-12-07T00:21:16;30.48;;;11.82;;
72649;SDS011;61467;50.674;4.618;2023-12-07T00:23:43;33.05;;;12.23;;
72649;SDS011;61467;50.674;4.618;2023-12-07T00:26:10;33.85;;;13.18;;
72649;SDS011;61467;50.674;4.618;2023-12-07T00:28:38;35.55;;;13.05;;
72649;SDS011;61467;50.674;4.618;2023-12-07T00:31:05;34.13;;;12.97;;
72649;SDS011;61467;50.674;4.618;2023-12-07T00:33:33;36.38;;;13.07;;
72649;SDS011;61467;50.674;4.618;2023-12-07T00:36:00;34.63;;;11.98;;
72649;SDS011;61467;50.674;4.618;2023-12-07T00:38:27;36.15;;;12.55;;
72649;SDS011;61467;50.674;4.618;2023-12-07T00:40:53;30.45;;;11.98;;
72649;SDS011;61467;50.674;4.618;2023-12-07T00:43:20;35.57;;;13.47;;
72649;SDS011;61467;50.674;4.618;2023-12-07T00:45:48;36.05;;;13.43;;
72649;SDS011;61467;50.674;4.618;2023-12-07T00:48:15;37.38;;;12.90;;
72649;SDS011;61467;50.674;4.618;2023-12-07T00:50:42;36.72;;;12.50;;
72649;SDS011;61467;50.674;4.618;2023-12-07T00:53:09;32.20;;;12.35;;
72649;SDS011;61467;50.674;4.618;2023-12-07T00:55:36;31.13;;;12.47;;
72649;SDS011;61467;50.674;4.618;2023-12-07T00:58:02;29.73;;;10.68;;
72649;SDS011;61467;50.674;4.618;2023-12-07T01:00:29;31.65;;;12.38;;
72649;SDS011;61467;50.674;4.618;2023-12-07T01:02:57;32.25;;;11.45;;
72649;SDS011;61467;50.674;4.618;2023-12-07T01:05:24;30.80;;;11.77;;
72649;SDS011;61467;50.674;4.618;2023-12-07T01:07:51;27.90;;;10.80;;
72649;SDS011;61467;50.674;4.618;2023-12-07T01:10:18;25.05;;;9.60;;
72649;SDS011;61467;50.674;4.618;2023-12-07T01:12:45;23.63;;;8.68;;
72649;SDS011;61467;50.674;4.618;2023-12-07T01:15:11;23.83;;;9.70;;
72649;SDS011;61467;50.674;4.618;2023-12-07T01:17:39;25.38;;;10.35;;
72649;SDS011;61467;50.674;4.618;2023-12-07T01:20:07;24.27;;;9.87;;
72649;SDS011;61467;50.674;4.618;2023-12-07T01:22:38;27.48;;;10.23;;
72649;SDS011;61467;50.674;4.618;2023-12-07T01:25:06;23.77;;;9.90;;
72649;SDS011;61467;50.674;4.618;2023-12-07T01:27:34;23.63;;;9.07;;
72649;SDS011;61467;50.674;4.618;2023-12-07T01:30:02;24.45;;;9.82;;
72649;SDS011;61467;50.674;4.618;2023-12-07T01:32:29;23.60;;;9.73;;
72649;SDS011;61467;50.674;4.618;2023-12-07T01:34:57;25.75;;;10.07;;
72649;SDS011;61467;50.674;4.618;2023-12-07T01:37:26;23.23;;;8.98;;
72649;SDS011;61467;50.674;4.618;2023-12-07T01:39:54;20.52;;;9.48;;
72649;SDS011;61467;50.674;4.618;2023-12-07T01:42:21;22.00;;;9.05;;
72649;SDS011;61467;50.674;4.618;2023-12-07T01:44:48;25.07;;;9.90;;
72649;SDS011;61467;50.674;4.618;2023-12-07T01:47:15;22.60;;;8.65;;
72649;SDS011;61467;50.674;4.618;2023-12-07T01:49:42;19.85;;;7.65;;
72649;SDS011;61467;50.674;4.618;2023-12-07T01:52:08;19.60;;;8.10;;
72649;SDS011;61467;50.674;4.618;2023-12-07T01:54:38;22.48;;;10.30;;
72649;SDS011;61467;50.674;4.618;2023-12-07T01:57:05;19.13;;;7.67;;
72649;SDS011;61467;50.674;4.618;2023-12-07T01:59:32;21.23;;;8.80;;
72649;SDS011;61467;50.674;4.618;2023-12-07T02:02:00;23.25;;;8.38;;
72649;SDS011;61467;50.674;4.618;2023-12-07T02:04:27;20.70;;;8.55;;
72649;SDS011;61467;50.674;4.618;2023-12-07T02:06:55;20.63;;;8.82;;
72649;SDS011;61467;50.674;4.618;2023-12-07T02:09:23;19.90;;;8.23;;
72649;SDS011;61467;50.674;4.618;2023-12-07T02:11:52;20.13;;;8.57;;
72649;SDS011;61467;50.674;4.618;2023-12-07T02:14:19;18.63;;;8.38;;
72649;SDS011;61467;50.674;4.618;2023-12-07T02:16:47;24.85;;;9.70;;
72649;SDS011;61467;50.674;4.618;2023-12-07T02:19:23;22.90;;;8.55;;
72649;SDS011;61467;50.674;4.618;2023-12-07T02:22:12;25.50;;;10.30;;
72649;SDS011;61467;50.674;4.618;2023-12-07T02:24:48;20.60;;;9.25;;
72649;SDS011;61467;50.674;4.618;2023-12-07T02:27:34;23.80;;;9.55;;
72649;SDS011;61467;50.674;4.618;2023-12-07T02:30:05;23.92;;;9.30;;
72649;SDS011;61467;50.674;4.618;2023-12-07T02:32:34;23.05;;;9.48;;
72649;SDS011;61467;50.674;4.618;2023-12-07T02:35:01;23.43;;;9.43;;
72649;SDS011;61467;50.674;4.618;2023-12-07T02:37:32;25.67;;;9.43;;
72649;SDS011;61467;50.674;4.618;2023-12-07T02:40:03;19.27;;;9.10;;
72649;SDS011;61467;50.674;4.618;2023-12-07T02:42:37;20.23;;;8.63;;
72649;SDS011;61467;50.674;4.618;2023-12-07T02:45:06;21.30;;;8.32;;
72649;SDS011;61467;50.674;4.618;2023-12-07T02:47:36;22.97;;;9.03;;
72649;SDS011;61467;50.674;4.618;2023-12-07T02:50:04;18.05;;;8.50;;
72649;SDS011;61467;50.674;4.618;2023-12-07T02:52:34;19.08;;;7.95;;
72649;SDS011;61467;50.674;4.618;2023-12-07T02:55:01;20.30;;;7.40;;
72649;SDS011;61467;50.674;4.618;2023-12-07T02:57:30;16.88;;;7.32;;
72649;SDS011;61467;50.674;4.618;2023-12-07T03:00:00;16.90;;;6.83;;
72649;SDS011;61467;50.674;4.618;2023-12-07T03:02:31;17.42;;;7.85;;
72649;SDS011;61467;50.674;4.618;2023-12-07T03:04:59;18.10;;;7.80;;
72649;SDS011;61467;50.674;4.618;2023-12-07T03:07:26;18.25;;;7.55;;
72649;SDS011;61467;50.674;4.618;2023-12-07T03:09:53;21.63;;;8.00;;
72649;SDS011;61467;50.674;4.618;2023-12-07T03:12:20;18.13;;;7.27;;
72649;SDS011;61467;50.674;4.618;2023-12-07T03:14:48;18.30;;;8.13;;
72649;SDS011;61467;50.674;4.618;2023-12-07T03:17:16;19.98;;;7.85;;
72649;SDS011;61467;50.674;4.618;2023-12-07T03:19:43;20.33;;;7.97;;
72649;SDS011;61467;50.674;4.618;2023-12-07T03:22:10;23.10;;;9.05;;
72649;SDS011;61467;50.674;4.618;2023-12-07T03:24:38;17.57;;;7.73;;
72649;SDS011;61467;50.674;4.618;2023-12-07T03:27:06;20.35;;;8.90;;
72649;SDS011;61467;50.674;4.618;2023-12-07T03:29:33;20.55;;;8.55;;
72649;SDS011;61467;50.674;4.618;2023-12-07T03:32:00;21.35;;;9.00;;
72649;SDS011;61467;50.674;4.618;2023-12-07T03:34:28;20.38;;;8.25;;
72649;SDS011;61467;50.674;4.618;2023-12-07T03:36:54;18.80;;;8.30;;
72649;SDS011;61467;50.674;4.618;2023-12-07T03:39:21;20.90;;;8.38;;
72649;SDS011;61467;50.674;4.618;2023-12-07T03:41:49;21.15;;;8.25;;
72649;SDS011;61467;50.674;4.618;2023-12-07T03:44:16;21.55;;;9.68;;
72649;SDS011;61467;50.674;4.618;2023-12-07T03:46:43;18.90;;;8.23;;
72649;SDS011;61467;50.674;4.618;2023-12-07T03:49:10;19.43;;;8.67;;
72649;SDS011;61467;50.674;4.618;2023-12-07T03:51:38;21.90;;;8.90;;
72649;SDS011;61467;50.674;4.618;2023-12-07T03:54:05;18.13;;;8.40;;
72649;SDS011;61467;50.674;4.618;2023-12-07T03:56:32;18.90;;;8.35;;
72649;SDS011;61467;50.674;4.618;2023-12-07T03:58:59;17.40;;;8.02;;
72649;SDS011;61467;50.674;4.618;2023-12-07T04:01:26;17.27;;;7.63;;
72649;SDS011;61467;50.674;4.618;2023-12-07T04:03:54;19.17;;;7.72;;
72649;SDS011;61467;50.674;4.618;2023-12-07T04:06:22;16.00;;;6.85;;
72649;SDS011;61467;50.674;4.618;2023-12-07T04:08:51;20.92;;;7.53;;
72649;SDS011;61467;50.674;4.618;2023-12-07T04:11:18;19.17;;;7.72;;
72649;SDS011;61467;50.674;4.618;2023-12-07T04:13:46;16.60;;;6.90;;
72649;SDS011;61467;50.674;4.618;2023-12-07T04:16:14;17.02;;;7.40;;
72649;SDS011;61467;50.674;4.618;2023-12-07T04:18:41;17.95;;;7.60;;
72649;SDS011;61467;50.674;4.618;2023-12-07T04:21:08;17.27;;;8.57;;
72649;SDS011;61467;50.674;4.618;2023-12-07T04:23:35;18.55;;;7.88;;
72649;SDS011;61467;50.674;4.618;2023-12-07T04:26:03;16.67;;;7.40;;
72649;SDS011;61467;50.674;4.618;2023-12-07T04:28:30;17.90;;;7.97;;
72649;SDS011;61467;50.674;4.618;2023-12-07T04:30:57;16.75;;;7.57;;
72649;SDS011;61467;50.674;4.618;2023-12-07T04:33:24;15.23;;;6.63;;
72649;SDS011;61467;50.674;4.618;2023-12-07T04:35:51;15.68;;;7.53;;
72649;SDS011;61467;50.674;4.618;2023-12-07T04:38:18;16.40;;;7.37;;
72649;SDS011;61467;50.674;4.618;2023-12-07T04:40:44;20.55;;;7.72;;
72649;SDS011;61467;50.674;4.618;2023-12-07T04:43:12;15.10;;;7.00;;
72649;SDS011;61467;50.674;4.618;2023-12-07T04:45:39;14.95;;;7.50;;
72649;SDS011;61467;50.674;4.618;2023-12-07T04:48:06;18.92;;;7.43;;
72649;SDS011;61467;50.674;4.618;2023-12-07T04:50:33;18.57;;;7.97;;
72649;SDS011;61467;50.674;4.618;2023-12-07T04:53:00;16.88;;;8.18;;
72649;SDS011;61467;50.674;4.618;2023-12-07T04:55:27;14.70;;;6.90;;
72649;SDS011;61467;50.674;4.618;2023-12-07T04:57:53;20.27;;;8.18;;
72649;SDS011;61467;50.674;4.618;2023-12-07T05:00:22;16.05;;;7.05;;
72649;SDS011;61467;50.674;4.618;2023-12-07T05:02:50;16.63;;;7.07;;
72649;SDS011;61467;50.674;4.618;2023-12-07T05:05:17;17.02;;;7.45;;
72649;SDS011;61467;50.674;4.618;2023-12-07T05:07:44;15.18;;;7.25;;
72649;SDS011;61467;50.674;4.618;2023-12-07T05:10:11;16.30;;;6.82;;
72649;SDS011;61467;50.674;4.618;2023-12-07T05:12:38;18.75;;;7.57;;
72649;SDS011;61467;50.674;4.618;2023-12-07T05:15:05;14.93;;;6.80;;
72649;SDS011;61467;50.674;4.618;2023-12-07T05:17:34;15.32;;;6.78;;
72649;SDS011;61467;50.674;4.618;2023-12-07T05:20:04;15.60;;;7.30;;
72649;SDS011;61467;50.674;4.618;2023-12-07T05:22:32;15.57;;;7.45;;
72649;SDS011;61467;50.674;4.618;2023-12-07T05:24:59;16.42;;;7.32;;
72649;SDS011;61467;50.674;4.618;2023-12-07T05:27:25;14.97;;;7.13;;
72649;SDS011;61467;50.674;4.618;2023-12-07T05:29:52;16.52;;;6.68;;
72649;SDS011;61467;50.674;4.618;2023-12-07T05:32:19;14.88;;;7.43;;
72649;SDS011;61467;50.674;4.618;2023-12-07T05:34:55;18.45;;;7.25;;
72649;SDS011;61467;50.674;4.618;2023-12-07T05:37:22;14.93;;;7.20;;
72649;SDS011;61467;50.674;4.618;2023-12-07T05:39:48;14.83;;;6.53;;
72649;SDS011;61467;50.674;4.618;2023-12-07T05:42:15;17.55;;;7.25;;
72649;SDS011;61467;50.674;4.618;2023-12-07T05:44:44;19.52;;;8.27;;
72649;SDS011;61467;50.674;4.618;2023-12-07T05:47:10;16.80;;;7.95;;
72649;SDS011;61467;50.674;4.618;2023-12-07T05:49:37;16.30;;;7.07;;
72649;SDS011;61467;50.674;4.618;2023-12-07T05:52:06;17.33;;;7.13;;
72649;SDS011;61467;50.674;4.618;2023-12-07T05:54:33;16.02;;;7.55;;
72649;SDS011;61467;50.674;4.618;2023-12-07T05:57:00;17.75;;;7.63;;
72649;SDS011;61467;50.674;4.618;2023-12-07T05:59:27;19.55;;;8.15;;
72649;SDS011;61467;50.674;4.618;2023-12-07T06:01:53;18.90;;;7.65;;
72649;SDS011;61467;50.674;4.618;2023-12-07T06:04:20;15.87;;;6.77;;
72649;SDS011;61467;50.674;4.618;2023-12-07T06:06:48;18.00;;;7.03;;
72649;SDS011;61467;50.674;4.618;2023-12-07T06:09:16;15.50;;;7.05;;
72649;SDS011;61467;50.674;4.618;2023-12-07T06:11:43;12.60;;;6.10;;
72649;SDS011;61467;50.674;4.618;2023-12-07T06:14:10;15.40;;;6.95;;
72649;SDS011;61467;50.674;4.618;2023-12-07T06:16:37;15.33;;;7.73;;
72649;SDS011;61467;50.674;4.618;2023-12-07T06:19:04;15.15;;;7.15;;
72649;SDS011;61467;50.674;4.618;2023-12-07T06:21:31;16.50;;;7.40;;
72649;SDS011;61467;50.674;4.618;2023-12-07T06:23:58;15.73;;;6.60;;
72649;SDS011;61467;50.674;4.618;2023-12-07T06:26:28;18.15;;;8.02;;
72649;SDS011;61467;50.674;4.618;2023-12-07T06:28:54;15.97;;;6.83;;
72649;SDS011;61467;50.674;4.618;2023-12-07T06:31:21;16.17;;;7.03;;
72649;SDS011;61467;50.674;4.618;2023-12-07T06:33:48;18.30;;;6.80;;
72649;SDS011;61467;50.674;4.618;2023-12-07T06:36:18;16.30;;;7.13;;
72649;SDS011;61467;50.674;4.618;2023-12-07T06:38:45;16.80;;;6.88;;
72649;SDS011;61467;50.674;4.618;2023-12-07T06:41:13;14.87;;;6.10;;
72649;SDS011;61467;50.674;4.618;2023-12-07T06:43:42;16.60;;;7.15;;
72649;SDS011;61467;50.674;4.618;2023-12-07T06:46:10;16.08;;;6.53;;
72649;SDS011;61467;50.674;4.618;2023-12-07T06:48:37;16.35;;;7.82;;
72649;SDS011;61467;50.674;4.618;2023-12-07T06:51:04;15.98;;;7.03;;
72649;SDS011;61467;50.674;4.618;2023-12-07T06:53:31;15.07;;;6.43;;
72649;SDS011;61467;50.674;4.618;2023-12-07T06:55:58;14.02;;;7.00;;
72649;SDS011;61467;50.674;4.618;2023-12-07T06:58:24;15.68;;;7.00;;
72649;SDS011;61467;50.674;4.618;2023-12-07T07:00:53;17.88;;;6.70;;
72649;SDS011;61467;50.674;4.618;2023-12-07T07:03:19;17.60;;;7.53;;
72649;SDS011;61467;50.674;4.618;2023-12-07T07:05:46;13.90;;;6.80;;
72649;SDS011;61467;50.674;4.618;2023-12-07T07:08:13;16.33;;;7.20;;
72649;SDS011;61467;50.674;4.618;2023-12-07T07:10:40;15.80;;;6.82;;
72649;SDS011;61467;50.674;4.618;2023-12-07T07:13:06;18.30;;;6.78;;
72649;SDS011;61467;50.674;4.618;2023-12-07T07:15:33;17.73;;;6.70;;
72649;SDS011;61467;50.674;4.618;2023-12-07T07:18:02;15.00;;;6.37;;
72649;SDS011;61467;50.674;4.618;2023-12-07T07:20:29;14.55;;;7.50;;
72649;SDS011;61467;50.674;4.618;2023-12-07T07:22:55;17.30;;;7.35;;
72649;SDS011;61467;50.674;4.618;2023-12-07T07:25:22;16.58;;;7.30;;
72649;SDS011;61467;50.674;4.618;2023-12-07T07:27:49;15.48;;;7.00;;
72649;SDS011;61467;50.674;4.618;2023-12-07T07:30:17;16.27;;;7.03;;
72649;SDS011;61467;50.674;4.618;2023-12-07T07:32:44;15.75;;;7.15;;
72649;SDS011;61467;50.674;4.618;2023-12-07T07:35:12;14.10;;;7.18;;
72649;SDS011;61467;50.674;4.618;2023-12-07T07:37:39;16.80;;;7.10;;
72649;SDS011;61467;50.674;4.618;2023-12-07T07:40:07;14.80;;;7.43;;
72649;SDS011;61467;50.674;4.618;2023-12-07T07:42:36;14.67;;;7.00;;
72649;SDS011;61467;50.674;4.618;2023-12-07T07:45:04;15.70;;;7.35;;
72649;SDS011;61467;50.674;4.618;2023-12-07T07:47:32;13.90;;;7.03;;
72649;SDS011;61467;50.674;4.618;2023-12-07T07:49:59;13.30;;;6.75;;
72649;SDS011;61467;50.674;4.618;2023-12-07T07:52:33;18.65;;;7.55;;
72649;SDS011;61467;50.674;4.618;2023-12-07T07:55:01;17.93;;;7.00;;
72649;SDS011;61467;50.674;4.618;2023-12-07T07:57:29;14.88;;;6.57;;
72649;SDS011;61467;50.674;4.618;2023-12-07T07:59:57;17.33;;;6.95;;
72649;SDS011;61467;50.674;4.618;2023-12-07T08:02:24;16.52;;;7.20;;
72649;SDS011;61467;50.674;4.618;2023-12-07T08:04:52;15.88;;;7.38;;
72649;SDS011;61467;50.674;4.618;2023-12-07T08:07:19;16.13;;;6.33;;
72649;SDS011;61467;50.674;4.618;2023-12-07T08:09:47;15.82;;;6.78;;
72649;SDS011;61467;50.674;4.618;2023-12-07T08:12:14;14.10;;;7.50;;
72649;SDS011;61467;50.674;4.618;2023-12-07T08:14:42;13.88;;;5.40;;
72649;SDS011;61467;50.674;4.618;2023-12-07T08:17:11;15.10;;;7.13;;
72649;SDS011;61467;50.674;4.618;2023-12-07T08:19:38;13.97;;;7.17;;
72649;SDS011;61467;50.674;4.618;2023-12-07T08:22:06;15.52;;;6.78;;
72649;SDS011;61467;50.674;4.618;2023-12-07T08:24:33;14.43;;;6.18;;
72649;SDS011;61467;50.674;4.618;2023-12-07T08:27:02;15.70;;;7.00;;
72649;SDS011;61467;50.674;4.618;2023-12-07T08:29:30;16.98;;;6.60;;
72649;SDS011;61467;50.674;4.618;2023-12-07T08:31:57;14.20;;;7.27;;
72649;SDS011;61467;50.674;4.618;2023-12-07T08:34:24;15.65;;;6.25;;
72649;SDS011;61467;50.674;4.618;2023-12-07T08:36:50;13.32;;;6.03;;
72649;SDS011;61467;50.674;4.618;2023-12-07T08:39:17;17.20;;;7.10;;
72649;SDS011;61467;50.674;4.618;2023-12-07T08:41:44;17.20;;;6.90;;
72649;SDS011;61467;50.674;4.618;2023-12-07T08:44:12;13.43;;;6.67;;
72649;SDS011;61467;50.674;4.618;2023-12-07T08:46:39;15.82;;;6.90;;
72649;SDS011;61467;50.674;4.618;2023-12-07T08:49:08;15.43;;;6.80;;
72649;SDS011;61467;50.674;4.618;2023-12-07T08:51:35;14.05;;;6.68;;
72649;SDS011;61467;50.674;4.618;2023-12-07T08:54:02;13.75;;;6.38;;
72649;SDS011;61467;50.674;4.618;2023-12-07T08:56:30;13.17;;;6.00;;
72649;SDS011;61467;50.674;4.618;2023-12-07T08:58:57;15.90;;;7.93;;
72649;SDS011;61467;50.674;4.618;2023-12-07T09:01:28;13.85;;;6.68;;
72649;SDS011;61467;50.674;4.618;2023-12-07T09:03:58;14.60;;;7.18;;
72649;SDS011;61467;50.674;4.618;2023-12-07T09:06:25;16.80;;;7.13;;
72649;SDS011;61467;50.674;4.618;2023-12-07T09:08:52;14.67;;;6.77;;
72649;SDS011;61467;50.674;4.618;2023-12-07T09:11:20;16.25;;;7.22;;
72649;SDS011;61467;50.674;4.618;2023-12-07T09:13:47;15.38;;;6.93;;
72649;SDS011;61467;50.674;4.618;2023-12-07T09:16:14;11.52;;;6.15;;
72649;SDS011;61467;50.674;4.618;2023-12-07T09:18:42;16.00;;;6.43;;
72649;SDS011;61467;50.674;4.618;2023-12-07T09:21:10;14.63;;;6.83;;
72649;SDS011;61467;50.674;4.618;2023-12-07T09:23:37;13.48;;;6.50;;
72649;SDS011;61467;50.674;4.618;2023-12-07T09:26:03;16.50;;;7.18;;
72649;SDS011;61467;50.674;4.618;2023-12-07T09:28:31;13.57;;;6.13;;
72649;SDS011;61467;50.674;4.618;2023-12-07T09:30:58;13.93;;;6.57;;
72649;SDS011;61467;50.674;4.618;2023-12-07T09:33:25;14.30;;;6.57;;
72649;SDS011;61467;50.674;4.618;2023-12-07T09:35:53;14.85;;;7.13;;
72649;SDS011;61467;50.674;4.618;2023-12-07T09:38:20;14.68;;;6.90;;
72649;SDS011;61467;50.674;4.618;2023-12-07T09:40:47;13.27;;;6.03;;
72649;SDS011;61467;50.674;4.618;2023-12-07T09:43:18;14.50;;;6.38;;
72649;SDS011;61467;50.674;4.618;2023-12-07T09:45:45;13.33;;;6.60;;
72649;SDS011;61467;50.674;4.618;2023-12-07T09:48:12;12.65;;;5.93;;
72649;SDS011;61467;50.674;4.618;2023-12-07T09:50:47;12.63;;;5.65;;
72649;SDS011;61467;50.674;4.618;2023-12-07T09:53:16;14.63;;;6.63;;
72649;SDS011;61467;50.674;4.618;2023-12-07T09:55:42;19.42;;;8.13;;
72649;SDS011;61467;50.674;4.618;2023-12-07T09:58:10;11.60;;;6.17;;
72649;SDS011;61467;50.674;4.618;2023-12-07T10:00:37;16.65;;;6.72;;
72649;SDS011;61467;50.674;4.618;2023-12-07T10:03:04;13.82;;;6.28;;
72649;SDS011;61467;50.674;4.618;2023-12-07T10:05:33;16.23;;;6.10;;
72649;SDS011;61467;50.674;4.618;2023-12-07T10:08:00;14.65;;;6.78;;
72649;SDS011;61467;50.674;4.618;2023-12-07T10:10:28;15.77;;;6.57;;
72649;SDS011;61467;50.674;4.618;2023-12-07T10:12:56;12.18;;;6.10;;
72649;SDS011;61467;50.674;4.618;2023-12-07T10:15:25;15.15;;;6.07;;
72649;SDS011;61467;50.674;4.618;2023-12-07T10:17:54;13.80;;;6.07;;
72649;SDS011;61467;50.674;4.618;2023-12-07T10:20:22;15.20;;;5.57;;
72649;SDS011;61467;50.674;4.618;2023-12-07T10:23:01;11.03;;;5.70;;
72649;SDS011;61467;50.674;4.618;2023-12-07T10:25:30;12.05;;;6.20;;
72649;SDS011;61467;50.674;4.618;2023-12-07T10:27:58;15.88;;;6.70;;
72649;SDS011;61467;50.674;4.618;2023-12-07T10:30:25;14.73;;;6.28;;
72649;SDS011;61467;50.674;4.618;2023-12-07T10:32:53;12.77;;;6.43;;
72649;SDS011;61467;50.674;4.618;2023-12-07T10:35:20;11.97;;;5.37;;
72649;SDS011;61467;50.674;4.618;2023-12-07T10:37:47;14.98;;;5.95;;
72649;SDS011;61467;50.674;4.618;2023-12-07T10:40:14;14.23;;;6.20;;
72649;SDS011;61467;50.674;4.618;2023-12-07T10:42:47;12.25;;;5.60;;
72649;SDS011;61467;50.674;4.618;2023-12-07T10:45:15;13.65;;;6.63;;
72649;SDS011;61467;50.674;4.618;2023-12-07T10:47:43;12.03;;;5.73;;
72649;SDS011;61467;50.674;4.618;2023-12-07T10:50:11;13.85;;;6.13;;
72649;SDS011;61467;50.674;4.618;2023-12-07T10:52:44;11.75;;;5.18;;
72649;SDS011;61467;50.674;4.618;2023-12-07T10:55:15;14.10;;;5.88;;
72649;SDS011;61467;50.674;4.618;2023-12-07T10:57:45;14.85;;;5.68;;
72649;SDS011;61467;50.674;4.618;2023-12-07T11:00:13;10.97;;;5.47;;
72649;SDS011;61467;50.674;4.618;2023-12-07T11:02:40;10.35;;;4.90;;
72649;SDS011;61467;50.674;4.618;2023-12-07T11:05:10;12.23;;;5.30;;
72649;SDS011;61467;50.674;4.618;2023-12-07T11:07:40;10.45;;;5.38;;
72649;SDS011;61467;50.674;4.618;2023-12-07T11:10:16;13.95;;;5.18;;
72649;SDS011;61467;50.674;4.618;2023-12-07T11:12:51;12.17;;;5.43;;
72649;SDS011;61467;50.674;4.618;2023-12-07T11:15:25;11.63;;;4.90;;
72649;SDS011;61467;50.674;4.618;2023-12-07T11:17:54;9.90;;;4.68;;
72649;SDS011;61467;50.674;4.618;2023-12-07T11:20:21;12.77;;;5.45;;
72649;SDS011;61467;50.674;4.618;2023-12-07T11:22:58;11.10;;;4.97;;
72649;SDS011;61467;50.674;4.618;2023-12-07T11:25:26;13.27;;;5.13;;
72649;SDS011;61467;50.674;4.618;2023-12-07T11:28:01;10.90;;;4.35;;
72649;SDS011;61467;50.674;4.618;2023-12-07T11:30:30;11.15;;;4.85;;
72649;SDS011;61467;50.674;4.618;2023-12-07T11:32:57;12.35;;;4.38;;
72649;SDS011;61467;50.674;4.618;2023-12-07T11:35:24;9.15;;;4.38;;
72649;SDS011;61467;50.674;4.618;2023-12-07T11:38:03;9.80;;;4.23;;
72649;SDS011;61467;50.674;4.618;2023-12-07T11:40:34;10.25;;;3.95;;
72649;SDS011;61467;50.674;4.618;2023-12-07T11:43:03;9.95;;;4.20;;
72649;SDS011;61467;50.674;4.618;2023-12-07T11:45:39;10.15;;;4.00;;
72649;SDS011;61467;50.674;4.618;2023-12-07T11:48:10;8.02;;;3.80;;
72649;SDS011;61467;50.674;4.618;2023-12-07T11:50:57;9.10;;;3.87;;
72649;SDS011;61467;50.674;4.618;2023-12-07T11:53:24;10.20;;;3.78;;
72649;SDS011;61467;50.674;4.618;2023-12-07T11:55:52;10.65;;;3.75;;
72649;SDS011;61467;50.674;4.618;2023-12-07T11:58:20;8.52;;;3.70;;
72649;SDS011;61467;50.674;4.618;2023-12-07T12:00:47;9.45;;;4.03;;
72649;SDS011;61467;50.674;4.618;2023-12-07T12:03:14;10.63;;;4.03;;
72649;SDS011;61467;50.674;4.618;2023-12-07T12:05:41;10.25;;;3.67;;
72649;SDS011;61467;50.674;4.618;2023-12-07T12:08:09;9.10;;;3.40;;
72649;SDS011;61467;50.674;4.618;2023-12-07T12:10:36;11.35;;;3.80;;
72649;SDS011;61467;50.674;4.618;2023-12-07T12:13:04;8.68;;;3.70;;
72649;SDS011;61467;50.674;4.618;2023-12-07T12:15:32;8.40;;;3.50;;
72649;SDS011;61467;50.674;4.618;2023-12-07T12:18:01;10.73;;;3.53;;
72649;SDS011;61467;50.674;4.618;2023-12-07T12:20:28;9.27;;;3.47;;
72649;SDS011;61467;50.674;4.618;2023-12-07T12:22:56;8.60;;;3.75;;
72649;SDS011;61467;50.674;4.618;2023-12-07T12:25:24;10.02;;;3.78;;
72649;SDS011;61467;50.674;4.618;2023-12-07T12:27:53;9.47;;;4.00;;
72649;SDS011;61467;50.674;4.618;2023-12-07T12:30:21;10.70;;;3.97;;
72649;SDS011;61467;50.674;4.618;2023-12-07T12:32:50;9.70;;;3.40;;
72649;SDS011;61467;50.674;4.618;2023-12-07T12:35:17;9.57;;;3.90;;
72649;SDS011;61467;50.674;4.618;2023-12-07T12:37:44;10.45;;;3.83;;
72649;SDS011;61467;50.674;4.618;2023-12-07T12:40:14;10.40;;;4.30;;
72649;SDS011;61467;50.674;4.618;2023-12-07T12:42:44;10.52;;;4.00;;
72649;SDS011;61467;50.674;4.618;2023-12-07T12:45:12;8.45;;;3.95;;
72649;SDS011;61467;50.674;4.618;2023-12-07T12:47:40;9.98;;;4.22;;
72649;SDS011;61467;50.674;4.618;2023-12-07T12:50:10;9.35;;;4.07;;
72649;SDS011;61467;50.674;4.618;2023-12-07T12:52:37;11.80;;;4.20;;
72649;SDS011;61467;50.674;4.618;2023-12-07T12:55:08;8.25;;;3.90;;
72649;SDS011;61467;50.674;4.618;2023-12-07T12:57:36;9.60;;;4.13;;
72649;SDS011;61467;50.674;4.618;2023-12-07T13:00:04;9.30;;;3.65;;
72649;SDS011;61467;50.674;4.618;2023-12-07T13:02:33;8.82;;;4.22;;
72649;SDS011;61467;50.674;4.618;2023-12-07T13:05:00;8.93;;;3.97;;
72649;SDS011;61467;50.674;4.618;2023-12-07T13:07:29;9.40;;;3.75;;
72649;SDS011;61467;50.674;4.618;2023-12-07T13:09:55;10.13;;;3.90;;
72649;SDS011;61467;50.674;4.618;2023-12-07T13:12:22;8.40;;;3.45;;
72649;SDS011;61467;50.674;4.618;2023-12-07T13:14:52;9.77;;;3.47;;
72649;SDS011;61467;50.674;4.618;2023-12-07T13:17:22;8.87;;;3.87;;
72649;SDS011;61467;50.674;4.618;2023-12-07T13:19:49;9.32;;;3.17;;
72649;SDS011;61467;50.674;4.618;2023-12-07T13:22:16;9.13;;;3.63;;
72649;SDS011;61467;50.674;4.618;2023-12-07T13:24:45;9.60;;;3.67;;
72649;SDS011;61467;50.674;4.618;2023-12-07T13:27:14;8.82;;;3.80;;
72649;SDS011;61467;50.674;4.618;2023-12-07T13:29:41;8.87;;;3.37;;
72649;SDS011;61467;50.674;4.618;2023-12-07T13:32:08;9.25;;;3.67;;
72649;SDS011;61467;50.674;4.618;2023-12-07T13:34:35;9.73;;;4.18;;
72649;SDS011;61467;50.674;4.618;2023-12-07T13:37:02;9.27;;;4.20;;
72649;SDS011;61467;50.674;4.618;2023-12-07T13:39:30;10.25;;;4.00;;
72649;SDS011;61467;50.674;4.618;2023-12-07T13:41:58;8.67;;;3.40;;
72649;SDS011;61467;50.674;4.618;2023-12-07T13:44:25;8.88;;;4.15;;
72649;SDS011;61467;50.674;4.618;2023-12-07T13:46:52;10.73;;;3.78;;
72649;SDS011;61467;50.674;4.618;2023-12-07T13:49:20;12.30;;;4.13;;
72649;SDS011;61467;50.674;4.618;2023-12-07T13:51:47;8.90;;;4.22;;
72649;SDS011;61467;50.674;4.618;2023-12-07T13:54:13;10.73;;;4.50;;
72649;SDS011;61467;50.674;4.618;2023-12-07T13:56:41;8.48;;;3.63;;
72649;SDS011;61467;50.674;4.618;2023-12-07T13:59:10;13.38;;;4.80;;
72649;SDS011;61467;50.674;4.618;2023-12-07T14:01:38;11.63;;;4.82;;
72649;SDS011;61467;50.674;4.618;2023-12-07T14:04:06;9.52;;;4.03;;
72649;SDS011;61467;50.674;4.618;2023-12-07T14:06:33;10.53;;;4.50;;
72649;SDS011;61467;50.674;4.618;2023-12-07T14:09:00;11.00;;;4.40;;
72649;SDS011;61467;50.674;4.618;2023-12-07T14:11:27;11.45;;;4.20;;
72649;SDS011;61467;50.674;4.618;2023-12-07T14:13:55;12.27;;;4.18;;
72649;SDS011;61467;50.674;4.618;2023-12-07T14:16:23;10.50;;;4.03;;
72649;SDS011;61467;50.674;4.618;2023-12-07T14:18:50;10.17;;;3.87;;
72649;SDS011;61467;50.674;4.618;2023-12-07T14:21:19;8.90;;;4.10;;
72649;SDS011;61467;50.674;4.618;2023-12-07T14:23:47;10.90;;;3.97;;
72649;SDS011;61467;50.674;4.618;2023-12-07T14:26:14;10.60;;;4.30;;
72649;SDS011;61467;50.674;4.618;2023-12-07T14:28:41;9.88;;;4.38;;
72649;SDS011;61467;50.674;4.618;2023-12-07T14:31:07;8.77;;;4.03;;
72649;SDS011;61467;50.674;4.618;2023-12-07T14:33:42;9.50;;;4.18;;
72649;SDS011;61467;50.674;4.618;2023-12-07T14:36:10;9.93;;;4.18;;
72649;SDS011;61467;50.674;4.618;2023-12-07T14:38:37;10.52;;;4.45;;
72649;SDS011;61467;50.674;4.618;2023-12-07T14:41:04;10.27;;;4.38;;